createdAt,value
2023-04-18T00:01:21.580Z,16.88
2023-04-18T00:03:52.046Z,15.57
2023-04-18T00:06:22.222Z,15.65
2023-04-18T00:08:52.691Z,15.98
2023-04-18T00:11:21.716Z,15.32
2023-04-18T00:13:50.638Z,17.80
2023-04-18T00:16:19.765Z,14.98
2023-04-18T00:18:48.690Z,14.73
2023-04-18T00:21:17.920Z,14.95
2023-04-18T00:23:47.188Z,15.50
2023-04-18T00:26:17.704Z,15.77
2023-04-18T00:28:49.792Z,16.10
2023-04-18T00:31:20.013Z,15.88
2023-04-18T00:33:49.033Z,16.17
2023-04-18T00:36:17.786Z,15.85
2023-04-18T00:38:47.235Z,16.98
2023-04-18T00:41:18.448Z,15.50
2023-04-18T00:43:47.501Z,16.63
2023-04-18T00:46:16.539Z,15.55
2023-04-18T00:48:45.485Z,14.98
2023-04-18T00:51:17.673Z,16.40
2023-04-18T00:53:47.275Z,15.95
2023-04-18T00:56:17.807Z,16.80
2023-04-18T00:58:46.694Z,17.10
2023-04-18T01:01:16.248Z,16.77
2023-04-18T01:03:47.240Z,16.42
2023-04-18T01:06:17.191Z,17.20
2023-04-18T01:08:46.881Z,18.10
2023-04-18T01:11:17.156Z,16.10
2023-04-18T01:14:00.102Z,17.10
2023-04-18T01:16:32.902Z,16.25
2023-04-18T01:19:02.791Z,16.00
2023-04-18T01:21:34.005Z,15.93
2023-04-18T01:24:09.032Z,16.73
2023-04-18T01:26:38.249Z,17.90
2023-04-18T01:29:08.000Z,16.77
2023-04-18T01:31:37.614Z,16.45
2023-04-18T01:34:07.105Z,16.65
2023-04-18T01:36:37.349Z,17.52
2023-04-18T01:39:09.271Z,16.25
2023-04-18T01:41:38.270Z,16.17
2023-04-18T01:44:07.272Z,15.75
2023-04-18T01:46:36.656Z,16.30
2023-04-18T01:49:06.183Z,17.58
2023-04-18T01:51:35.159Z,17.30
2023-04-18T01:54:04.163Z,15.77
2023-04-18T01:56:34.616Z,17.25
2023-04-18T01:59:04.391Z,17.02
2023-04-18T02:01:33.513Z,17.38
2023-04-18T02:04:02.671Z,18.38
2023-04-18T02:06:31.944Z,16.98
2023-04-18T02:09:02.279Z,17.15
2023-04-18T02:11:33.306Z,16.65
2023-04-18T02:14:05.136Z,17.25
2023-04-18T02:16:34.112Z,16.98
2023-04-18T02:19:04.396Z,17.40
2023-04-18T02:21:33.234Z,17.58
2023-04-18T02:24:02.195Z,17.75
2023-04-18T02:26:30.998Z,17.58
2023-04-18T02:29:01.389Z,19.10
2023-04-18T02:31:32.154Z,17.15
2023-04-18T02:34:01.242Z,17.00
2023-04-18T02:36:31.168Z,17.67
2023-04-18T02:39:00.214Z,17.05
2023-04-18T02:41:29.183Z,17.85
2023-04-18T02:43:58.279Z,17.65
2023-04-18T02:46:28.833Z,17.98
2023-04-18T02:49:01.420Z,16.25
2023-04-18T02:51:30.934Z,18.00
2023-04-18T02:54:00.948Z,17.02
2023-04-18T02:56:40.203Z,17.30
2023-04-18T02:59:17.947Z,18.00
2023-04-18T03:02:02.425Z,18.17
2023-04-18T03:04:32.036Z,16.55
2023-04-18T03:07:03.886Z,17.70
2023-04-18T03:09:36.898Z,17.75
2023-04-18T03:12:12.963Z,17.35
2023-04-18T03:14:44.484Z,16.88
2023-04-18T03:17:16.578Z,16.52
2023-04-18T03:19:50.272Z,16.35
2023-04-18T03:22:21.947Z,15.52
2023-04-18T03:24:57.528Z,17.58
2023-04-18T03:27:42.870Z,15.52
2023-04-18T03:30:13.779Z,14.95
2023-04-18T03:32:46.898Z,15.55
2023-04-18T03:35:16.064Z,16.70
2023-04-18T03:37:44.906Z,14.57
2023-04-18T03:40:20.104Z,14.07
2023-04-18T03:42:51.456Z,14.70
2023-04-18T03:45:21.249Z,14.13
2023-04-18T03:47:51.769Z,13.35
2023-04-18T03:50:22.203Z,13.68
2023-04-18T03:52:52.243Z,14.80
2023-04-18T03:55:21.944Z,13.55
2023-04-18T03:57:51.112Z,16.63
2023-04-18T04:00:29.067Z,14.65
2023-04-18T04:03:05.136Z,14.15
2023-04-18T04:05:34.336Z,14.63
2023-04-18T04:08:03.298Z,14.23
2023-04-18T04:10:32.404Z,14.57
2023-04-18T04:13:01.292Z,14.63
2023-04-18T04:15:30.971Z,14.20
2023-04-18T04:18:09.095Z,14.13
2023-04-18T04:20:41.246Z,14.65
2023-04-18T04:23:16.826Z,13.82
2023-04-18T04:25:53.057Z,13.73
2023-04-18T04:28:46.533Z,12.85
2023-04-18T04:31:22.241Z,14.85
2023-04-18T04:33:53.979Z,14.38
2023-04-18T04:36:27.268Z,13.35
2023-04-18T04:38:58.625Z,14.27
2023-04-18T04:41:37.680Z,14.40
2023-04-18T04:44:08.001Z,14.50
2023-04-18T04:46:39.441Z,12.93
2023-04-18T04:49:15.324Z,12.65
2023-04-18T04:51:44.636Z,11.40
2023-04-18T04:54:14.236Z,11.30
2023-04-18T04:56:51.365Z,12.38
2023-04-18T04:59:21.604Z,11.75
2023-04-18T05:01:54.380Z,12.23
2023-04-18T05:04:25.988Z,11.73
2023-04-18T05:06:55.281Z,11.02
2023-04-18T05:09:24.076Z,11.82
2023-04-18T05:11:53.085Z,11.13
2023-04-18T05:14:22.177Z,11.00
2023-04-18T05:16:51.412Z,11.45
2023-04-18T05:19:20.645Z,11.50
2023-04-18T05:21:51.089Z,10.63
2023-04-18T05:24:20.383Z,11.45
2023-04-18T05:26:49.210Z,10.80
2023-04-18T05:29:18.166Z,10.77
2023-04-18T05:31:47.261Z,10.75
2023-04-18T05:34:16.394Z,10.45
2023-04-18T05:36:45.459Z,9.95
2023-04-18T05:39:15.679Z,10.02
2023-04-18T05:41:44.648Z,9.98
2023-04-18T05:44:13.753Z,9.95
2023-04-18T05:46:42.912Z,9.63
2023-04-18T05:49:11.755Z,9.18
2023-04-18T05:51:41.630Z,10.15
2023-04-18T05:54:10.673Z,9.45
2023-04-18T05:56:42.236Z,10.32
2023-04-18T05:59:11.351Z,8.85
2023-04-18T06:01:40.609Z,8.88
2023-04-18T06:04:12.989Z,7.80
2023-04-18T06:06:42.198Z,9.65
2023-04-18T06:09:11.336Z,8.90
2023-04-18T06:11:41.742Z,7.82
2023-04-18T06:14:10.675Z,9.00
2023-04-18T06:16:39.778Z,8.77
2023-04-18T06:19:08.831Z,7.60
2023-04-18T06:21:37.705Z,8.02
2023-04-18T06:24:06.934Z,8.13
2023-04-18T06:26:35.839Z,8.93
2023-04-18T06:29:06.172Z,8.38
2023-04-18T06:31:35.236Z,9.85
2023-04-18T06:34:04.387Z,9.02
2023-04-18T06:36:33.525Z,10.75
2023-04-18T06:39:02.595Z,8.57
2023-04-18T06:41:31.570Z,8.80
2023-04-18T06:44:14.597Z,8.90
2023-04-18T06:46:45.174Z,8.25
2023-04-18T06:49:14.258Z,8.55
2023-04-18T06:51:43.226Z,8.30
2023-04-18T06:54:12.327Z,8.10
2023-04-18T06:56:41.462Z,8.20
2023-04-18T06:59:10.722Z,7.78
2023-04-18T07:01:42.261Z,8.38
2023-04-18T07:04:12.873Z,7.47
2023-04-18T07:06:44.123Z,8.20
2023-04-18T07:09:16.044Z,7.32
2023-04-18T07:11:44.951Z,7.30
2023-04-18T07:14:14.228Z,7.32
2023-04-18T07:16:43.540Z,7.38
2023-04-18T07:19:13.876Z,7.60
2023-04-18T07:21:44.922Z,7.28
2023-04-18T07:24:14.218Z,7.60
2023-04-18T07:26:43.760Z,8.05
2023-04-18T07:29:12.847Z,7.28
2023-04-18T07:31:41.810Z,7.60
2023-04-18T07:34:11.736Z,7.95
2023-04-18T07:36:42.733Z,7.28
2023-04-18T07:39:11.678Z,7.82
2023-04-18T07:41:40.519Z,8.27
2023-04-18T07:44:09.546Z,7.30
2023-04-18T07:46:38.675Z,7.28
2023-04-18T07:49:07.808Z,7.72
2023-04-18T07:51:36.719Z,8.52
2023-04-18T07:54:07.440Z,7.85
2023-04-18T07:56:36.380Z,8.65
2023-04-18T07:59:05.442Z,8.30
2023-04-18T08:01:34.640Z,8.52
2023-04-18T08:04:04.119Z,8.85
2023-04-18T08:06:34.741Z,8.75
2023-04-18T08:09:05.697Z,8.38
2023-04-18T08:11:36.347Z,9.07
2023-04-18T08:14:05.333Z,8.60
2023-04-18T08:16:34.247Z,9.70
2023-04-18T08:19:03.088Z,8.25
2023-04-18T08:21:32.532Z,9.07
2023-04-18T08:24:01.585Z,9.38
2023-04-18T08:26:30.925Z,8.98
2023-04-18T08:29:01.293Z,8.35
2023-04-18T08:31:31.737Z,9.82
2023-04-18T08:34:02.545Z,9.60
2023-04-18T08:36:32.742Z,9.63
2023-04-18T08:39:01.867Z,9.32
2023-04-18T08:41:37.325Z,11.00
2023-04-18T08:44:08.247Z,8.98
2023-04-18T08:46:37.447Z,9.63
2023-04-18T08:49:08.523Z,9.50
2023-04-18T08:51:43.615Z,10.95
2023-04-18T08:54:12.885Z,9.93
2023-04-18T08:56:42.589Z,9.35
2023-04-18T08:59:14.066Z,9.82
2023-04-18T09:01:57.634Z,8.43
2023-04-18T09:04:38.387Z,9.23
2023-04-18T09:07:08.832Z,9.52
2023-04-18T09:10:19.479Z,9.00
2023-04-18T09:13:03.114Z,9.45
2023-04-18T09:15:34.572Z,9.32
2023-04-18T09:18:03.699Z,9.98
2023-04-18T09:20:40.036Z,9.07
2023-04-18T09:23:11.560Z,9.07
2023-04-18T09:25:48.286Z,9.25
2023-04-18T09:28:25.136Z,9.23
2023-04-18T09:30:56.261Z,33.90
2023-04-18T09:33:32.679Z,10.65
2023-04-18T09:36:19.784Z,11.00
2023-04-18T09:38:49.285Z,9.55
2023-04-18T09:41:21.373Z,9.30
2023-04-18T09:43:50.791Z,9.30
2023-04-18T09:46:22.697Z,9.60
2023-04-18T09:48:51.701Z,12.95
2023-04-18T09:51:20.914Z,10.30
2023-04-18T09:53:50.349Z,10.43
2023-04-18T09:56:26.843Z,10.45
2023-04-18T09:58:58.611Z,9.40
2023-04-18T10:01:29.976Z,9.57
2023-04-18T10:04:03.698Z,10.38
2023-04-18T10:06:34.703Z,10.90
2023-04-18T10:09:05.809Z,9.85
2023-04-18T10:11:35.063Z,10.65
2023-04-18T10:14:08.003Z,10.77
2023-04-18T10:16:39.493Z,9.88
2023-04-18T10:19:27.032Z,8.82
2023-04-18T10:21:57.065Z,10.43
2023-04-18T10:24:53.315Z,10.38
2023-04-18T10:27:57.371Z,10.80
2023-04-18T10:30:56.370Z,9.30
2023-04-18T10:33:32.226Z,10.45
2023-04-18T10:36:06.106Z,9.77
2023-04-18T10:38:35.380Z,10.43
2023-04-18T10:41:25.004Z,9.38
2023-04-18T10:44:18.380Z,9.15
2023-04-18T10:47:32.302Z,9.65
2023-04-18T10:50:06.828Z,8.15
2023-04-18T10:52:36.133Z,9.18
2023-04-18T10:55:21.257Z,7.93
2023-04-18T10:57:51.502Z,8.55
2023-04-18T11:00:21.912Z,8.30
2023-04-18T11:02:56.548Z,7.90
2023-04-18T11:05:30.673Z,7.90
2023-04-18T11:07:59.760Z,8.25
2023-04-18T11:10:29.560Z,7.90
2023-04-18T11:13:04.676Z,9.38
2023-04-18T11:15:33.656Z,9.50
2023-04-18T11:18:04.137Z,9.50
2023-04-18T11:20:41.178Z,9.38
2023-04-18T11:23:19.774Z,9.57
2023-04-18T11:25:52.011Z,10.00
2023-04-18T11:28:22.157Z,10.15
2023-04-18T11:30:51.522Z,9.00
2023-04-18T11:33:20.473Z,9.00
2023-04-18T11:35:50.741Z,7.80
2023-04-18T11:38:28.588Z,8.10
2023-04-18T11:40:57.701Z,11.18
2023-04-18T11:43:27.008Z,8.23
2023-04-18T11:45:57.011Z,7.60
2023-04-18T11:48:34.967Z,7.32
2023-04-18T11:51:05.999Z,7.35
2023-04-18T11:53:35.658Z,7.05
2023-04-18T11:56:05.683Z,8.20
2023-04-18T11:58:35.473Z,8.02
2023-04-18T12:01:18.212Z,7.90
2023-04-18T12:04:01.734Z,6.75
2023-04-18T12:06:50.434Z,8.13
2023-04-18T12:09:19.765Z,7.13
2023-04-18T12:11:59.219Z,6.63
2023-04-18T12:14:28.916Z,7.10
2023-04-18T12:16:58.063Z,7.18
2023-04-18T12:19:31.536Z,6.70
2023-04-18T12:22:03.347Z,6.97
2023-04-18T12:24:32.449Z,7.40
2023-04-18T12:27:02.062Z,7.93
2023-04-18T12:29:30.994Z,6.93
2023-04-18T12:32:00.035Z,6.93
2023-04-18T12:34:29.219Z,7.70
2023-04-18T12:36:58.225Z,6.88
2023-04-18T12:39:28.425Z,7.30
2023-04-18T12:41:57.718Z,8.60
2023-04-18T12:44:26.566Z,7.50
2023-04-18T12:46:55.634Z,7.75
2023-04-18T12:49:24.554Z,6.78
2023-04-18T12:51:53.405Z,7.00
2023-04-18T12:54:22.289Z,5.80
2023-04-18T12:56:52.630Z,5.82
2023-04-18T12:59:21.666Z,5.78
2023-04-18T13:01:50.483Z,5.40
2023-04-18T13:04:19.689Z,5.07
2023-04-18T13:06:48.663Z,4.78
2023-04-18T13:09:17.707Z,4.85
2023-04-18T13:11:48.268Z,5.72
2023-04-18T13:14:19.618Z,4.88
2023-04-18T13:16:48.770Z,4.88
2023-04-18T13:19:17.776Z,5.03
2023-04-18T13:21:48.435Z,5.47
2023-04-18T13:24:18.564Z,4.97
2023-04-18T13:26:47.821Z,4.80
2023-04-18T13:29:16.596Z,5.25
2023-04-18T13:31:46.844Z,5.15
2023-04-18T13:34:16.016Z,4.70
2023-04-18T13:36:44.871Z,5.60
2023-04-18T13:39:15.364Z,5.97
2023-04-18T13:41:44.447Z,5.95
2023-04-18T13:44:13.176Z,7.38
2023-04-18T13:46:42.166Z,6.57
2023-04-18T13:49:12.584Z,7.00
2023-04-18T13:51:42.802Z,6.57
2023-04-18T13:54:14.715Z,8.05
2023-04-18T13:56:43.761Z,7.28
2023-04-18T13:59:12.730Z,7.40
2023-04-18T14:01:41.911Z,8.13
2023-04-18T14:04:12.492Z,9.45
2023-04-18T14:06:41.891Z,9.15
2023-04-18T14:09:10.798Z,9.25
2023-04-18T14:11:39.756Z,9.18
2023-04-18T14:14:08.684Z,8.75
2023-04-18T14:16:37.775Z,8.65
2023-04-18T14:19:06.667Z,8.73
2023-04-18T14:21:37.089Z,8.65
2023-04-18T14:24:07.369Z,8.80
2023-04-18T14:26:36.308Z,7.75
2023-04-18T14:29:05.427Z,7.97
2023-04-18T14:31:34.434Z,9.05
2023-04-18T14:34:03.469Z,8.80
2023-04-18T14:36:32.833Z,7.95
2023-04-18T14:39:03.691Z,7.93
2023-04-18T14:41:33.121Z,9.15
2023-04-18T14:44:02.260Z,8.05
2023-04-18T14:46:31.527Z,8.95
2023-04-18T14:49:01.532Z,7.70
2023-04-18T14:51:31.228Z,8.38
2023-04-18T14:54:00.563Z,8.55
2023-04-18T14:56:31.292Z,8.35
2023-04-18T14:59:00.463Z,8.73
2023-04-18T15:01:29.565Z,8.85
2023-04-18T15:03:59.544Z,8.68
2023-04-18T15:06:28.616Z,8.07
2023-04-18T15:08:57.395Z,7.78
2023-04-18T15:11:27.297Z,8.75
2023-04-18T15:13:58.126Z,9.43
2023-04-18T15:16:26.963Z,8.52
2023-04-18T15:18:55.976Z,8.30
2023-04-18T15:21:24.873Z,8.20
2023-04-18T15:23:53.694Z,8.85
2023-04-18T15:26:22.589Z,8.20
2023-04-18T15:28:51.390Z,8.32
2023-04-18T15:31:21.976Z,8.63
2023-04-18T15:33:51.000Z,9.30
2023-04-18T15:36:19.800Z,10.05
2023-04-18T15:38:48.724Z,9.10
2023-04-18T15:41:17.626Z,8.88
2023-04-18T15:43:46.879Z,8.93
2023-04-18T15:46:16.086Z,10.25
2023-04-18T15:48:46.341Z,9.60
2023-04-18T15:51:15.333Z,10.00
2023-04-18T15:53:44.250Z,9.70
2023-04-18T15:56:13.858Z,9.70
2023-04-18T15:58:42.941Z,10.18
2023-04-18T16:01:16.072Z,10.05
2023-04-18T16:03:47.055Z,10.18
2023-04-18T16:06:16.918Z,10.10
2023-04-18T16:08:45.755Z,9.32
2023-04-18T16:11:15.485Z,9.65
2023-04-18T16:13:45.053Z,10.75
2023-04-18T16:16:14.085Z,10.38
2023-04-18T16:18:43.187Z,9.45
2023-04-18T16:21:15.913Z,10.48
2023-04-18T16:23:46.005Z,9.95
2023-04-18T16:26:14.872Z,10.77
2023-04-18T16:28:48.244Z,10.88
2023-04-18T16:31:17.272Z,10.25
2023-04-18T16:33:46.489Z,10.88
2023-04-18T16:36:16.719Z,10.02
2023-04-18T16:38:45.633Z,10.23
2023-04-18T16:41:14.468Z,11.18
2023-04-18T16:43:44.095Z,10.30
2023-04-18T16:46:13.851Z,9.77
2023-04-18T16:48:42.728Z,10.98
2023-04-18T16:51:13.197Z,10.43
2023-04-18T16:53:44.592Z,10.45
2023-04-18T16:56:14.676Z,12.73
2023-04-18T16:58:43.470Z,10.70
2023-04-18T17:01:12.505Z,9.95
2023-04-18T17:03:42.477Z,11.00
2023-04-18T17:06:11.784Z,11.00
2023-04-18T17:08:42.370Z,11.25
2023-04-18T17:11:11.587Z,10.88
2023-04-18T17:13:40.489Z,13.10
2023-04-18T17:16:10.820Z,11.48
2023-04-18T17:18:39.848Z,11.63
2023-04-18T17:21:12.354Z,13.10
2023-04-18T17:23:42.675Z,12.13
2023-04-18T17:26:11.745Z,12.32
2023-04-18T17:28:40.830Z,11.80
2023-04-18T17:31:11.538Z,12.98
2023-04-18T17:33:41.098Z,12.27
2023-04-18T17:36:12.564Z,13.90
2023-04-18T17:38:48.921Z,12.52
2023-04-18T17:41:18.858Z,14.65
2023-04-18T17:43:48.598Z,13.68
2023-04-18T17:46:17.712Z,14.30
2023-04-18T17:48:47.068Z,13.05
2023-04-18T17:51:16.746Z,14.05
2023-04-18T17:53:49.228Z,12.95
2023-04-18T17:56:18.756Z,12.75
2023-04-18T17:58:47.620Z,12.93
2023-04-18T18:01:17.210Z,13.63
2023-04-18T18:03:47.070Z,12.73
2023-04-18T18:06:16.739Z,13.55
2023-04-18T18:08:45.852Z,13.02
2023-04-18T18:11:16.331Z,12.15
2023-04-18T18:13:46.774Z,12.57
2023-04-18T18:16:16.097Z,16.83
2023-04-18T18:18:45.378Z,13.35
2023-04-18T18:21:14.437Z,13.73
2023-04-18T18:23:43.622Z,15.23
2023-04-18T18:26:13.221Z,14.63
2023-04-18T18:28:43.735Z,13.98
2023-04-18T18:31:12.460Z,14.68
2023-04-18T18:33:41.625Z,15.35
2023-04-18T18:36:10.471Z,15.20
2023-04-18T18:38:39.350Z,15.63
2023-04-18T18:41:08.629Z,16.25
2023-04-18T18:43:37.648Z,15.93
2023-04-18T18:46:08.520Z,19.27
2023-04-18T18:48:39.100Z,17.17
2023-04-18T18:51:08.384Z,17.13
2023-04-18T18:53:39.655Z,18.02
2023-04-18T18:56:09.842Z,17.60
2023-04-18T18:58:39.283Z,16.77
2023-04-18T19:01:11.363Z,17.45
2023-04-18T19:03:59.957Z,18.10
2023-04-18T19:06:29.007Z,17.52
2023-04-18T19:08:58.092Z,17.20
2023-04-18T19:11:27.246Z,16.73
2023-04-18T19:13:56.513Z,17.58
2023-04-18T19:16:28.251Z,16.33
2023-04-18T19:18:57.260Z,16.70
2023-04-18T19:21:26.477Z,16.38
2023-04-18T19:23:55.549Z,16.88
2023-04-18T19:26:24.528Z,15.05
2023-04-18T19:28:54.602Z,16.75
2023-04-18T19:31:23.721Z,17.55
2023-04-18T19:33:53.993Z,16.65
2023-04-18T19:36:23.667Z,15.35
2023-04-18T19:38:52.656Z,16.55
2023-04-18T19:41:21.704Z,14.45
2023-04-18T19:43:52.525Z,14.18
2023-04-18T19:46:21.487Z,16.23
2023-04-18T19:48:50.646Z,15.50
2023-04-18T19:51:21.194Z,15.05
2023-04-18T19:53:50.284Z,15.05
2023-04-18T19:56:19.461Z,15.50
2023-04-18T19:58:49.212Z,15.38
2023-04-18T20:01:19.667Z,16.50
2023-04-18T20:03:49.444Z,14.75
2023-04-18T20:06:20.439Z,14.23
2023-04-18T20:08:49.527Z,14.85
2023-04-18T20:11:18.406Z,14.38
2023-04-18T20:13:47.608Z,14.75
2023-04-18T20:16:17.004Z,13.40
2023-04-18T20:18:47.659Z,15.07
2023-04-18T20:21:16.866Z,15.32
2023-04-18T20:23:47.152Z,15.65
2023-04-18T20:26:16.266Z,14.52
2023-04-18T20:28:45.342Z,14.77
2023-04-18T20:31:14.247Z,15.02
2023-04-18T20:33:43.301Z,14.63
2023-04-18T20:36:14.155Z,15.77
2023-04-18T20:38:44.515Z,13.63
2023-04-18T20:41:18.254Z,15.07
2023-04-18T20:43:47.514Z,14.40
2023-04-18T20:46:16.600Z,13.73
2023-04-18T20:48:45.556Z,13.80
2023-04-18T20:51:14.515Z,14.90
2023-04-18T20:53:43.346Z,14.55
2023-04-18T20:56:12.213Z,13.63
2023-04-18T20:58:43.196Z,15.05
2023-04-18T21:01:12.428Z,15.05
2023-04-18T21:03:41.972Z,14.02
2023-04-18T21:06:11.443Z,14.98
2023-04-18T21:08:40.664Z,13.93
2023-04-18T21:11:09.801Z,15.25
2023-04-18T21:13:38.741Z,15.43
2023-04-18T21:16:10.345Z,14.82
2023-04-18T21:18:39.552Z,15.93
2023-04-18T21:21:09.112Z,15.82
2023-04-18T21:23:45.469Z,16.08
2023-04-18T21:26:14.952Z,16.20
2023-04-18T21:28:57.690Z,15.80
2023-04-18T21:31:30.341Z,15.00
2023-04-18T21:34:00.690Z,15.43
2023-04-18T21:36:31.038Z,15.68
2023-04-18T21:39:01.683Z,14.90
2023-04-18T21:41:30.863Z,15.15
2023-04-18T21:43:59.737Z,16.17
2023-04-18T21:46:30.058Z,15.50
2023-04-18T21:48:59.855Z,14.68
2023-04-18T21:51:28.743Z,13.30
2023-04-18T21:53:59.017Z,15.00
2023-04-18T21:56:27.938Z,15.55
2023-04-18T21:58:56.862Z,13.48
2023-04-18T22:01:25.820Z,13.77
2023-04-18T22:03:56.426Z,14.38
2023-04-18T22:06:26.090Z,14.95
2023-04-18T22:08:54.897Z,15.88
2023-04-18T22:11:24.735Z,14.95
2023-04-18T22:13:54.861Z,14.85
2023-04-18T22:16:24.463Z,14.52
2023-04-18T22:18:53.989Z,14.90
2023-04-18T22:21:24.508Z,14.07
2023-04-18T22:23:53.587Z,14.82
2023-04-18T22:26:22.386Z,14.68
2023-04-18T22:28:51.444Z,14.60
2023-04-18T22:31:20.519Z,14.00
2023-04-18T22:33:49.497Z,16.50
2023-04-18T22:36:18.349Z,14.43
2023-04-18T22:38:48.572Z,15.27
2023-04-18T22:41:17.545Z,14.68
2023-04-18T22:43:46.421Z,13.75
2023-04-18T22:46:15.414Z,14.13
2023-04-18T22:48:44.886Z,14.13
2023-04-18T22:51:15.001Z,14.48
2023-04-18T22:53:44.121Z,15.05
2023-04-18T22:56:14.410Z,14.95
2023-04-18T22:58:43.237Z,16.33
2023-04-18T23:01:15.053Z,15.30
2023-04-18T23:03:44.037Z,14.57
2023-04-18T23:06:13.098Z,15.25
2023-04-18T23:08:42.119Z,15.35
2023-04-18T23:11:11.560Z,15.23
2023-04-18T23:13:41.751Z,14.98
2023-04-18T23:16:10.601Z,14.48
2023-04-18T23:18:39.884Z,17.35
2023-04-18T23:21:08.903Z,15.85
2023-04-18T23:23:37.626Z,15.02
2023-04-18T23:26:14.017Z,15.20
2023-04-18T23:28:44.440Z,14.85
2023-04-18T23:31:13.483Z,13.90
2023-04-18T23:33:42.503Z,14.90
2023-04-18T23:36:11.966Z,15.73
2023-04-18T23:38:41.920Z,15.23
2023-04-18T23:41:10.728Z,14.30
2023-04-18T23:43:39.736Z,14.95
2023-04-18T23:46:09.990Z,14.40
2023-04-18T23:48:39.070Z,15.80
2023-04-18T23:51:07.957Z,15.55
2023-04-18T23:53:36.720Z,14.48
2023-04-18T23:56:05.907Z,15.30
2023-04-18T23:58:34.613Z,14.55
